createdAt,value
2018-08-06T00:02:04.136Z,6.67
2018-08-06T00:04:32.839Z,9.55
2018-08-06T00:07:00.889Z,5.55
2018-08-06T00:09:29.007Z,8.40
2018-08-06T00:11:57.053Z,7.28
2018-08-06T00:14:25.100Z,8.70
2018-08-06T00:16:53.502Z,7.28
2018-08-06T00:19:21.560Z,8.83
2018-08-06T00:21:49.672Z,5.15
2018-08-06T00:24:17.776Z,4.37
2018-08-06T00:26:45.833Z,5.87
2018-08-06T00:29:13.880Z,6.55
2018-08-06T00:31:41.928Z,5.55
2018-08-06T00:34:10.016Z,7.05
2018-08-06T00:36:38.171Z,5.25
2018-08-06T00:39:08.592Z,7.35
2018-08-06T00:41:36.707Z,4.10
2018-08-06T00:44:05.228Z,5.65
2018-08-06T00:46:33.328Z,7.20
2018-08-06T00:49:01.430Z,3.58
2018-08-06T00:51:29.650Z,4.12
2018-08-06T00:53:58.223Z,5.10
2018-08-06T00:56:26.311Z,4.37
2018-08-06T00:58:54.385Z,7.90
2018-08-06T01:01:22.471Z,5.90
2018-08-06T01:03:50.807Z,6.72
2018-08-06T01:06:18.875Z,6.08
2018-08-06T01:08:46.912Z,5.80
2018-08-06T01:11:15.006Z,6.58
2018-08-06T01:13:43.044Z,6.12
2018-08-06T01:16:11.092Z,3.22
2018-08-06T01:18:39.168Z,6.28
2018-08-06T01:21:07.207Z,4.05
2018-08-06T01:23:35.253Z,6.05
2018-08-06T01:26:03.297Z,6.70
2018-08-06T01:28:31.369Z,9.23
2018-08-06T01:30:59.403Z,5.05
2018-08-06T01:33:27.464Z,5.80
2018-08-06T01:35:55.495Z,8.55
2018-08-06T01:38:23.544Z,4.30
2018-08-06T01:40:51.615Z,4.37
2018-08-06T01:43:19.664Z,4.22
2018-08-06T01:45:47.728Z,5.00
2018-08-06T01:48:15.819Z,3.87
2018-08-06T01:50:43.843Z,7.60
2018-08-06T01:53:11.875Z,7.97
2018-08-06T01:55:39.912Z,3.20
2018-08-06T01:58:07.963Z,10.53
2018-08-06T02:00:36.008Z,5.80
2018-08-06T02:03:04.056Z,3.77
2018-08-06T02:05:32.121Z,5.10
2018-08-06T02:08:00.160Z,2.85
2018-08-06T02:10:28.222Z,4.55
2018-08-06T02:12:56.308Z,5.37
2018-08-06T02:15:24.348Z,3.55
2018-08-06T02:17:52.407Z,6.12
2018-08-06T02:20:20.435Z,7.90
2018-08-06T02:22:48.859Z,3.70
2018-08-06T02:25:16.924Z,5.62
2018-08-06T02:27:45.064Z,4.90
2018-08-06T02:30:14.392Z,4.12
2018-08-06T02:32:42.489Z,4.30
2018-08-06T02:35:12.645Z,4.12
2018-08-06T02:37:41.580Z,3.77
2018-08-06T02:40:12.013Z,7.70
2018-08-06T02:42:40.064Z,4.55
2018-08-06T02:45:09.056Z,5.08
2018-08-06T02:47:37.648Z,5.37
2018-08-06T02:50:06.548Z,4.60
2018-08-06T02:52:34.608Z,2.92
2018-08-06T02:55:02.968Z,4.95
2018-08-06T02:57:31.051Z,4.22
2018-08-06T02:59:59.083Z,4.45
2018-08-06T03:02:27.140Z,6.37
2018-08-06T03:04:55.229Z,7.42
2018-08-06T03:07:23.272Z,7.60
2018-08-06T03:09:51.364Z,4.22
2018-08-06T03:12:19.399Z,4.20
2018-08-06T03:14:47.499Z,4.50
2018-08-06T03:17:15.536Z,4.22
2018-08-06T03:19:43.577Z,2.95
2018-08-06T03:22:11.612Z,4.25
2018-08-06T03:24:39.683Z,4.85
2018-08-06T03:27:07.720Z,10.28
2018-08-06T03:29:35.779Z,5.20
2018-08-06T03:32:03.803Z,6.22
2018-08-06T03:34:31.872Z,8.58
2018-08-06T03:36:59.905Z,7.85
2018-08-06T03:39:28.016Z,24.07
2018-08-06T03:41:56.064Z,3.72
2018-08-06T03:44:24.129Z,5.58
2018-08-06T03:46:52.199Z,5.08
2018-08-06T03:49:20.300Z,4.17
2018-08-06T03:51:48.341Z,5.15
2018-08-06T03:54:16.399Z,5.50
2018-08-06T03:56:44.464Z,11.53
2018-08-06T03:59:12.510Z,5.78
2018-08-06T04:01:40.552Z,5.03
2018-08-06T04:04:08.600Z,5.55
2018-08-06T04:06:36.633Z,4.42
2018-08-06T04:09:06.605Z,4.90
2018-08-06T04:11:34.644Z,4.45
2018-08-06T04:14:02.723Z,3.60
2018-08-06T04:16:35.424Z,5.37
2018-08-06T04:19:03.482Z,3.50
2018-08-06T04:21:31.564Z,9.45
2018-08-06T04:23:59.609Z,6.50
2018-08-06T04:26:27.647Z,3.17
2018-08-06T04:28:55.688Z,4.90
2018-08-06T04:31:23.755Z,20.88
2018-08-06T04:33:51.833Z,4.40
2018-08-06T04:36:19.864Z,4.53
2018-08-06T04:38:48.167Z,5.40
2018-08-06T04:41:16.232Z,4.00
2018-08-06T04:43:44.316Z,5.42
2018-08-06T04:46:12.377Z,5.78
2018-08-06T04:48:40.424Z,9.63
2018-08-06T04:51:08.488Z,6.70
2018-08-06T04:53:36.564Z,4.83
2018-08-06T04:56:04.616Z,7.55
2018-08-06T04:58:32.669Z,4.85
2018-08-06T05:01:00.719Z,12.68
2018-08-06T05:03:28.798Z,5.58
2018-08-06T05:05:56.840Z,15.78
2018-08-06T05:08:24.876Z,3.08
2018-08-06T05:10:52.920Z,5.10
2018-08-06T05:13:20.983Z,6.55
2018-08-06T05:15:49.059Z,6.75
2018-08-06T05:18:17.124Z,7.72
2018-08-06T05:20:45.192Z,5.47
2018-08-06T05:23:13.221Z,7.85
2018-08-06T05:25:41.298Z,6.20
2018-08-06T05:28:09.341Z,11.38
2018-08-06T05:30:37.400Z,8.00
2018-08-06T05:33:05.432Z,8.60
2018-08-06T05:35:33.501Z,7.00
2018-08-06T05:38:01.539Z,9.95
2018-08-06T05:40:29.588Z,7.03
2018-08-06T05:42:57.622Z,9.38
2018-08-06T05:45:25.708Z,5.42
2018-08-06T05:47:53.748Z,7.72
2018-08-06T05:50:21.804Z,9.60
2018-08-06T05:52:49.831Z,7.35
2018-08-06T05:55:17.919Z,9.33
2018-08-06T05:57:45.963Z,10.25
2018-08-06T06:00:16.503Z,9.70
2018-08-06T06:02:45.208Z,11.38
2018-08-06T06:05:13.259Z,9.63
2018-08-06T06:07:41.752Z,9.00
2018-08-06T06:10:11.261Z,8.45
2018-08-06T06:12:39.307Z,9.00
2018-08-06T06:15:12.544Z,9.38
2018-08-06T06:17:41.111Z,8.48
2018-08-06T06:20:09.851Z,6.60
2018-08-06T06:22:37.928Z,11.30
2018-08-06T06:25:08.198Z,9.63
2018-08-06T06:27:36.564Z,8.10
2018-08-06T06:30:06.108Z,8.70
2018-08-06T06:32:34.239Z,10.85
2018-08-06T06:35:02.324Z,11.50
2018-08-06T06:37:30.477Z,10.55
2018-08-06T06:39:58.550Z,11.45
2018-08-06T06:42:26.692Z,13.20
2018-08-06T06:44:54.795Z,10.82
2018-08-06T06:47:22.832Z,9.80
2018-08-06T06:49:50.927Z,11.18
2018-08-06T06:52:19.020Z,8.70
2018-08-06T06:54:47.104Z,9.13
2018-08-06T06:57:15.560Z,12.53
2018-08-06T06:59:43.836Z,10.00
2018-08-06T07:02:12.259Z,11.22
2018-08-06T07:04:40.372Z,10.98
2018-08-06T07:07:08.484Z,13.50
2018-08-06T07:09:36.711Z,10.78
2018-08-06T07:12:05.111Z,13.38
2018-08-06T07:14:33.208Z,10.80
2018-08-06T07:17:01.285Z,11.53
2018-08-06T07:19:29.452Z,14.20
2018-08-06T07:21:57.506Z,19.67
2018-08-06T07:24:25.552Z,10.05
2018-08-06T07:26:53.640Z,12.25
2018-08-06T07:29:21.702Z,10.75
2018-08-06T07:31:49.757Z,16.52
2018-08-06T07:34:17.819Z,11.20
2018-08-06T07:36:45.884Z,19.23
2018-08-06T07:39:13.941Z,17.67
2018-08-06T07:41:42.011Z,10.32
2018-08-06T07:44:10.081Z,16.57
2018-08-06T07:46:38.257Z,14.30
2018-08-06T07:49:06.418Z,16.65
2018-08-06T07:51:34.647Z,12.15
2018-08-06T07:54:02.743Z,13.20
2018-08-06T07:56:30.792Z,12.80
2018-08-06T07:58:58.896Z,14.20
2018-08-06T08:01:26.956Z,26.95
2018-08-06T08:03:55.068Z,17.75
2018-08-06T08:06:23.170Z,12.28
2018-08-06T08:08:51.192Z,16.20
2018-08-06T08:11:19.240Z,18.60
2018-08-06T08:13:47.284Z,17.62
2018-08-06T08:16:15.340Z,20.55
2018-08-06T08:18:43.383Z,22.77
2018-08-06T08:21:11.754Z,22.93
2018-08-06T08:23:39.796Z,16.52
2018-08-06T08:26:07.868Z,22.22
2018-08-06T08:28:35.980Z,29.70
2018-08-06T08:31:04.063Z,19.87
2018-08-06T08:33:32.099Z,25.95
2018-08-06T08:36:00.143Z,30.23
2018-08-06T08:38:28.195Z,36.55
2018-08-06T08:40:56.240Z,13.95
2018-08-06T08:43:24.288Z,19.48
2018-08-06T08:45:52.344Z,27.87
2018-08-06T08:48:20.404Z,38.10
2018-08-06T08:50:48.468Z,44.85
2018-08-06T08:53:16.508Z,37.28
2018-08-06T08:55:44.582Z,22.35
2018-08-06T08:58:12.695Z,45.05
2018-08-06T09:00:40.748Z,49.93
2018-08-06T09:03:08.813Z,45.17
2018-08-06T09:05:36.860Z,33.30
2018-08-06T09:08:04.927Z,49.13
2018-08-06T09:10:32.973Z,38.20
2018-08-06T09:13:01.072Z,47.60
2018-08-06T09:15:29.143Z,38.02
2018-08-06T09:17:57.202Z,50.65
2018-08-06T09:20:26.012Z,45.90
2018-08-06T09:22:54.090Z,49.90
2018-08-06T09:25:22.140Z,48.50
2018-08-06T09:27:51.408Z,42.62
2018-08-06T09:30:21.735Z,34.40
2018-08-06T09:32:51.240Z,45.15
2018-08-06T09:35:19.804Z,32.55
2018-08-06T09:37:47.912Z,38.10
2018-08-06T09:40:17.367Z,39.83
2018-08-06T09:42:46.091Z,55.30
2018-08-06T09:45:15.265Z,62.30
2018-08-06T09:47:44.568Z,47.90
2018-08-06T09:50:13.252Z,52.83
2018-08-06T09:52:42.148Z,72.80
2018-08-06T09:55:12.376Z,51.83
2018-08-06T09:57:40.760Z,57.97
2018-08-06T10:01:21.282Z,64.43
2018-08-06T10:03:49.361Z,54.13
2018-08-06T10:06:17.485Z,70.13
2018-08-06T10:08:45.532Z,61.13
2018-08-06T10:11:13.589Z,60.10
2018-08-06T10:13:41.692Z,57.30
2018-08-06T10:16:09.752Z,58.17
2018-08-06T10:18:37.820Z,70.50
2018-08-06T10:21:06.131Z,67.47
2018-08-06T10:23:34.245Z,77.97
2018-08-06T10:26:02.299Z,70.20
2018-08-06T10:28:30.384Z,67.33
2018-08-06T10:30:58.588Z,110.90
2018-08-06T10:33:26.687Z,106.90
2018-08-06T10:35:54.744Z,90.57
2018-08-06T10:38:22.821Z,100.40
2018-08-06T10:40:50.875Z,78.80
2018-08-06T10:43:18.935Z,92.70
2018-08-06T10:45:46.975Z,99.23
2018-08-06T10:48:15.043Z,96.23
2018-08-06T10:50:43.080Z,137.23
2018-08-06T10:53:11.164Z,105.33
2018-08-06T10:55:39.236Z,93.87
2018-08-06T10:58:07.292Z,89.13
2018-08-06T11:00:35.379Z,94.57
2018-08-06T11:03:03.453Z,90.37
2018-08-06T11:05:31.488Z,83.93
2018-08-06T11:07:59.572Z,96.53
2018-08-06T11:10:27.620Z,93.73
2018-08-06T11:12:55.703Z,99.47
2018-08-06T11:15:25.131Z,106.43
2018-08-06T11:17:55.151Z,90.97
2018-08-06T11:20:23.912Z,130.80
2018-08-06T11:22:51.983Z,85.80
2018-08-06T11:25:21.425Z,119.37
2018-08-06T11:27:49.655Z,71.23
2018-08-06T11:30:19.405Z,76.77
2018-08-06T11:32:48.194Z,107.83
2018-08-06T11:35:16.572Z,92.87
2018-08-06T11:37:44.660Z,97.10
2018-08-06T11:40:13.960Z,105.50
2018-08-06T11:42:42.763Z,78.57
2018-08-06T11:45:13.044Z,76.33
2018-08-06T11:47:41.118Z,91.30
2018-08-06T11:50:09.597Z,89.53
2018-08-06T11:52:37.669Z,98.83
2018-08-06T11:55:06.456Z,105.43
2018-08-06T11:57:34.549Z,94.30
2018-08-06T12:00:02.912Z,98.40
2018-08-06T12:02:30.971Z,105.40
2018-08-06T12:04:59.043Z,106.73
2018-08-06T12:07:27.205Z,100.83
2018-08-06T12:09:55.289Z,98.80
2018-08-06T12:12:23.372Z,114.57
2018-08-06T12:14:51.445Z,98.93
2018-08-06T12:17:19.507Z,113.60
2018-08-06T12:19:47.584Z,101.57
2018-08-06T12:22:15.637Z,80.93
2018-08-06T12:24:43.740Z,81.93
2018-08-06T12:27:11.823Z,66.60
2018-08-06T12:29:39.921Z,87.03
2018-08-06T12:32:07.996Z,91.13
2018-08-06T12:34:36.079Z,103.13
2018-08-06T12:37:04.130Z,84.23
2018-08-06T12:39:32.248Z,105.70
2018-08-06T12:42:00.328Z,134.03
2018-08-06T12:44:28.391Z,94.93
2018-08-06T12:46:56.448Z,83.07
2018-08-06T12:49:24.547Z,98.37
2018-08-06T12:51:52.602Z,134.67
2018-08-06T12:54:20.673Z,127.03
2018-08-06T12:56:48.753Z,160.43
2018-08-06T12:59:16.816Z,125.10
2018-08-06T13:01:44.893Z,109.97
2018-08-06T13:04:12.994Z,129.23
2018-08-06T13:06:42.946Z,130.60
2018-08-06T13:09:11.123Z,102.07
2018-08-06T13:11:39.858Z,124.67
2018-08-06T13:14:08.668Z,156.33
2018-08-06T13:16:37.497Z,109.70
2018-08-06T13:19:06.425Z,78.43
2018-08-06T13:21:34.964Z,99.93
2018-08-06T13:24:04.151Z,82.30
2018-08-06T13:26:34.378Z,85.30
2018-08-06T13:29:03.003Z,105.53
2018-08-06T13:31:31.130Z,96.27
2018-08-06T13:33:59.252Z,93.00
2018-08-06T13:36:27.420Z,98.70
2018-08-06T13:38:55.593Z,108.80
2018-08-06T13:41:23.733Z,96.67
2018-08-06T13:43:51.826Z,75.10
2018-08-06T13:46:19.967Z,113.10
2018-08-06T13:48:48.055Z,87.43
2018-08-06T13:51:16.238Z,109.10
2018-08-06T13:53:44.373Z,102.37
2018-08-06T13:56:12.541Z,108.70
2018-08-06T13:58:40.671Z,103.70
2018-08-06T14:01:08.916Z,90.33
2018-08-06T14:03:37.114Z,130.17
2018-08-06T14:06:05.312Z,122.50
2018-08-06T14:08:33.532Z,127.20
2018-08-06T14:11:01.689Z,112.57
2018-08-06T14:13:29.859Z,175.63
2018-08-06T14:15:57.995Z,102.13
2018-08-06T14:18:26.130Z,148.37
2018-08-06T14:20:54.217Z,94.57
2018-08-06T14:23:22.365Z,109.50
2018-08-06T14:25:50.561Z,136.23
2018-08-06T14:28:18.712Z,128.13
2018-08-06T14:30:46.868Z,154.80
2018-08-06T14:33:14.996Z,156.07
2018-08-06T14:35:43.080Z,138.70
2018-08-06T14:38:11.132Z,109.67
2018-08-06T14:40:39.286Z,186.33
2018-08-06T14:43:07.455Z,161.17
2018-08-06T14:45:36.076Z,109.93
2018-08-06T14:48:04.300Z,132.97
2018-08-06T14:50:32.371Z,140.93
2018-08-06T14:53:00.467Z,102.97
2018-08-06T14:55:28.561Z,134.00
2018-08-06T14:57:56.738Z,95.03
2018-08-06T15:00:24.876Z,116.70
2018-08-06T15:02:53.716Z,127.57
2018-08-06T15:05:21.892Z,191.13
2018-08-06T15:07:49.980Z,78.30
2018-08-06T15:10:18.067Z,96.90
2018-08-06T15:12:46.206Z,90.47
2018-08-06T15:15:15.385Z,91.30
2018-08-06T15:17:44.084Z,108.17
2018-08-06T15:20:13.845Z,125.87
2018-08-06T15:22:41.932Z,134.63
2018-08-06T15:25:16.849Z,111.20
2018-08-06T15:27:44.956Z,90.27
2018-08-06T15:30:13.077Z,113.13
2018-08-06T15:32:41.180Z,92.03
2018-08-06T15:35:10.083Z,128.20
2018-08-06T15:37:39.211Z,147.07
2018-08-06T15:40:10.322Z,133.60
2018-08-06T15:42:38.450Z,132.60
2018-08-06T15:45:06.712Z,66.47
2018-08-06T15:47:34.815Z,86.07
2018-08-06T15:50:02.908Z,85.47
2018-08-06T15:52:31.052Z,119.20
2018-08-06T15:54:59.164Z,96.23
2018-08-06T15:57:27.265Z,122.20
2018-08-06T15:59:55.323Z,60.87
2018-08-06T16:02:23.401Z,63.90
2018-08-06T16:04:51.592Z,114.97
2018-08-06T16:07:19.681Z,60.50
2018-08-06T16:09:47.803Z,71.13
2018-08-06T16:12:15.892Z,68.00
2018-08-06T16:14:44.016Z,59.50
2018-08-06T16:17:12.146Z,76.33
2018-08-06T16:19:40.267Z,57.83
2018-08-06T16:22:09.197Z,62.03
2018-08-06T16:24:37.290Z,103.50
2018-08-06T16:27:05.412Z,75.77
2018-08-06T16:29:33.784Z,96.90
2018-08-06T16:32:01.894Z,69.50
2018-08-06T16:34:29.993Z,66.23
2018-08-06T16:36:58.115Z,81.03
2018-08-06T16:39:26.196Z,85.73
2018-08-06T16:41:54.276Z,73.40
2018-08-06T16:44:22.364Z,98.03
2018-08-06T16:46:50.617Z,79.43
2018-08-06T16:49:18.599Z,94.93
2018-08-06T16:51:46.675Z,83.20
2018-08-06T16:54:14.807Z,62.17
2018-08-06T16:56:42.910Z,70.50
2018-08-06T16:59:11.040Z,78.40
2018-08-06T17:01:39.110Z,77.70
2018-08-06T17:04:07.239Z,75.53
2018-08-06T17:06:35.371Z,51.23
2018-08-06T17:09:04.044Z,76.50
2018-08-06T17:11:32.178Z,57.43
2018-08-06T17:14:00.357Z,67.37
2018-08-06T17:16:28.432Z,55.33
2018-08-06T17:18:56.540Z,80.33
2018-08-06T17:21:24.599Z,71.77
2018-08-06T17:23:52.683Z,74.00
2018-08-06T17:26:20.752Z,61.47
2018-08-06T17:28:48.824Z,93.63
2018-08-06T17:31:16.888Z,50.77
2018-08-06T17:33:44.964Z,59.80
2018-08-06T17:36:13.123Z,83.03
2018-08-06T17:38:41.213Z,68.00
2018-08-06T17:41:09.271Z,55.23
2018-08-06T17:43:37.327Z,56.33
2018-08-06T17:46:05.597Z,48.27
2018-08-06T17:48:33.659Z,61.77
2018-08-06T17:51:01.717Z,68.63
2018-08-06T17:53:29.764Z,60.10
2018-08-06T17:55:57.832Z,44.80
2018-08-06T17:58:25.963Z,47.62
2018-08-06T18:00:54.122Z,46.68
2018-08-06T18:03:22.312Z,49.30
2018-08-06T18:05:50.377Z,67.62
2018-08-06T18:08:18.479Z,39.50
2018-08-06T18:10:46.580Z,59.77
2018-08-06T18:13:14.686Z,45.33
2018-08-06T18:15:42.743Z,60.73
2018-08-06T18:18:10.808Z,60.08
2018-08-06T18:20:38.853Z,53.38
2018-08-06T18:23:06.916Z,55.58
2018-08-06T18:25:34.986Z,62.30
2018-08-06T18:28:03.064Z,47.60
2018-08-06T18:30:31.116Z,41.15
2018-08-06T18:32:59.188Z,42.90
2018-08-06T18:35:27.248Z,43.58
2018-08-06T18:37:55.340Z,64.60
2018-08-06T18:40:23.405Z,115.10
2018-08-06T18:42:51.465Z,84.50
2018-08-06T18:45:20.829Z,63.23
2018-08-06T18:47:49.820Z,55.78
2018-08-06T18:50:18.480Z,36.63
2018-08-06T18:52:47.520Z,36.23
2018-08-06T18:55:16.049Z,44.15
2018-08-06T18:57:44.691Z,46.30
2018-08-06T19:00:21.166Z,48.28
2018-08-06T19:02:49.474Z,42.85
2018-08-06T19:05:17.641Z,41.00
2018-08-06T19:07:45.609Z,48.83
2018-08-06T19:10:13.733Z,34.80
2018-08-06T19:12:47.143Z,35.10
2018-08-06T19:15:15.256Z,31.40
2018-08-06T19:17:48.745Z,50.15
2018-08-06T19:20:16.861Z,39.40
2018-08-06T19:22:44.920Z,54.13
2018-08-06T19:25:18.274Z,46.95
2018-08-06T19:27:46.352Z,46.48
2018-08-06T19:30:14.414Z,41.40
2018-08-06T19:32:42.580Z,43.52
2018-08-06T19:35:10.707Z,35.10
2018-08-06T19:37:46.652Z,25.55
2018-08-06T19:40:15.201Z,33.53
2018-08-06T19:42:48.708Z,30.90
2018-08-06T19:45:16.816Z,22.13
2018-08-06T19:47:45.245Z,27.48
2018-08-06T19:50:50.185Z,28.85
2018-08-06T19:53:18.248Z,28.00
2018-08-06T19:55:51.737Z,21.30
2018-08-06T19:58:19.805Z,33.88
2018-08-06T20:00:47.871Z,31.77
2018-08-06T20:03:15.944Z,36.90
2018-08-06T20:05:44.000Z,39.67
2018-08-06T20:08:12.407Z,30.65
2018-08-06T20:10:40.506Z,31.60
2018-08-06T20:13:08.570Z,31.95
2018-08-06T20:15:36.616Z,26.82
2018-08-06T20:18:04.700Z,23.73
2018-08-06T20:20:32.761Z,33.85
2018-08-06T20:23:00.811Z,34.67
2018-08-06T20:25:28.864Z,27.05
2018-08-06T20:27:56.939Z,21.82
2018-08-06T20:30:25.012Z,31.00
2018-08-06T20:32:53.075Z,25.50
2018-08-06T20:35:21.218Z,24.75
2018-08-06T20:37:49.261Z,23.65
2018-08-06T20:40:17.323Z,26.65
2018-08-06T20:42:46.096Z,29.45
2018-08-06T20:45:15.719Z,22.22
2018-08-06T20:47:44.180Z,18.02
2018-08-06T20:50:14.925Z,23.65
2018-08-06T20:52:43.024Z,34.92
2018-08-06T20:55:11.600Z,30.00
2018-08-06T20:57:39.792Z,26.33
2018-08-06T21:00:10.062Z,25.32
2018-08-06T21:02:38.297Z,21.62
2018-08-06T21:05:06.416Z,29.37
2018-08-06T21:07:34.484Z,34.83
2018-08-06T21:10:02.561Z,29.67
2018-08-06T21:12:30.621Z,18.07
2018-08-06T21:14:58.715Z,22.50
2018-08-06T21:17:26.805Z,26.73
2018-08-06T21:19:54.906Z,17.30
2018-08-06T21:22:22.968Z,22.07
2018-08-06T21:24:51.044Z,19.95
2018-08-06T21:27:19.151Z,24.72
2018-08-06T21:29:47.220Z,20.20
2018-08-06T21:32:15.356Z,19.70
2018-08-06T21:34:43.428Z,23.05
2018-08-06T21:37:11.544Z,23.27
2018-08-06T21:39:39.631Z,23.38
2018-08-06T21:42:07.740Z,32.33
2018-08-06T21:44:35.834Z,27.48
2018-08-06T21:47:03.912Z,20.48
2018-08-06T21:49:31.980Z,19.07
2018-08-06T21:52:00.069Z,16.07
2018-08-06T21:54:28.114Z,15.05
2018-08-06T21:56:56.164Z,15.63
2018-08-06T21:59:24.343Z,23.85
2018-08-06T22:01:52.455Z,16.12
2018-08-06T22:04:20.516Z,8.95
2018-08-06T22:06:48.555Z,13.45
2018-08-06T22:09:16.616Z,11.95
2018-08-06T22:11:44.676Z,17.15
2018-08-06T22:14:12.783Z,12.20
2018-08-06T22:16:40.859Z,13.85
2018-08-06T22:19:10.242Z,19.40
2018-08-06T22:21:38.540Z,19.32
2018-08-06T22:24:07.104Z,12.95
2018-08-06T22:26:35.307Z,13.10
2018-08-06T22:29:03.494Z,11.50
2018-08-06T22:31:31.560Z,14.47
2018-08-06T22:33:59.758Z,14.20
2018-08-06T22:36:28.068Z,16.97
2018-08-06T22:38:56.104Z,11.03
2018-08-06T22:41:24.851Z,13.28
2018-08-06T22:43:53.087Z,14.65
2018-08-06T22:46:21.399Z,14.40
2018-08-06T22:48:49.473Z,13.48
2018-08-06T22:51:17.560Z,11.50
2018-08-06T22:53:45.609Z,16.95
2018-08-06T22:56:13.667Z,14.13
2018-08-06T22:58:41.704Z,16.02
2018-08-06T23:01:10.924Z,16.75
2018-08-06T23:03:38.979Z,11.60
2018-08-06T23:06:07.687Z,14.28
2018-08-06T23:08:35.776Z,18.17
2018-08-06T23:11:03.815Z,13.60
2018-08-06T23:13:31.887Z,14.35
2018-08-06T23:15:59.968Z,13.98
2018-08-06T23:18:28.052Z,11.38
2018-08-06T23:20:56.109Z,9.58
2018-08-06T23:23:24.182Z,11.00
2018-08-06T23:25:52.248Z,11.53
2018-08-06T23:28:20.320Z,12.18
2018-08-06T23:30:48.354Z,10.95
2018-08-06T23:33:16.417Z,11.73
2018-08-06T23:35:44.528Z,12.43
2018-08-06T23:38:12.576Z,10.68
2018-08-06T23:40:40.653Z,14.20
2018-08-06T23:43:08.712Z,9.78
2018-08-06T23:45:36.803Z,12.98
2018-08-06T23:48:05.311Z,11.08
2018-08-06T23:50:33.356Z,8.70
2018-08-06T23:53:01.460Z,10.50
2018-08-06T23:55:29.471Z,12.30
